sensor_id;sensor_type;location;lat;lon;timestamp;P1;durP1;ratioP1;P2;durP2;ratioP2
59998;SDS011;45859;51.378;6.736;2023-02-13T00:00:04;8.13;;;3.80;;
59998;SDS011;45859;51.378;6.736;2023-02-13T00:02:31;10.27;;;7.83;;
59998;SDS011;45859;51.378;6.736;2023-02-13T00:04:56;10.40;;;8.50;;
59998;SDS011;45859;51.378;6.736;2023-02-13T00:07:22;7.97;;;3.47;;
59998;SDS011;45859;51.378;6.736;2023-02-13T00:09:48;7.53;;;3.47;;
59998;SDS011;45859;51.378;6.736;2023-02-13T00:12:13;10.53;;;8.50;;
59998;SDS011;45859;51.378;6.736;2023-02-13T00:14:39;5.57;;;3.57;;
59998;SDS011;45859;51.378;6.736;2023-02-13T00:17:05;6.07;;;3.37;;
59998;SDS011;45859;51.378;6.736;2023-02-13T00:19:31;10.63;;;8.30;;
59998;SDS011;45859;51.378;6.736;2023-02-13T00:21:57;7.70;;;4.50;;
59998;SDS011;45859;51.378;6.736;2023-02-13T00:24:22;6.67;;;2.70;;
59998;SDS011;45859;51.378;6.736;2023-02-13T00:26:48;9.60;;;3.67;;
59998;SDS011;45859;51.378;6.736;2023-02-13T00:29:14;2.70;;;1.73;;
59998;SDS011;45859;51.378;6.736;2023-02-13T00:31:39;9.87;;;4.00;;
59998;SDS011;45859;51.378;6.736;2023-02-13T00:34:05;10.37;;;4.07;;
59998;SDS011;45859;51.378;6.736;2023-02-13T00:36:31;5.77;;;2.23;;
59998;SDS011;45859;51.378;6.736;2023-02-13T00:38:56;10.50;;;8.53;;
59998;SDS011;45859;51.378;6.736;2023-02-13T00:41:22;10.83;;;8.50;;
59998;SDS011;45859;51.378;6.736;2023-02-13T00:43:48;8.40;;;3.87;;
59998;SDS011;45859;51.378;6.736;2023-02-13T00:46:14;10.47;;;3.70;;
59998;SDS011;45859;51.378;6.736;2023-02-13T00:48:41;11.13;;;7.50;;
59998;SDS011;45859;51.378;6.736;2023-02-13T00:51:08;15.60;;;3.80;;
59998;SDS011;45859;51.378;6.736;2023-02-13T00:53:34;8.83;;;3.83;;
59998;SDS011;45859;51.378;6.736;2023-02-13T00:56:01;10.00;;;7.87;;
59998;SDS011;45859;51.378;6.736;2023-02-13T00:58:27;6.17;;;3.13;;
59998;SDS011;45859;51.378;6.736;2023-02-13T01:00:53;9.63;;;3.40;;
59998;SDS011;45859;51.378;6.736;2023-02-13T01:03:20;5.93;;;2.73;;
59998;SDS011;45859;51.378;6.736;2023-02-13T01:05:47;9.10;;;3.60;;
59998;SDS011;45859;51.378;6.736;2023-02-13T01:08:13;11.37;;;8.10;;
59998;SDS011;45859;51.378;6.736;2023-02-13T01:10:40;11.33;;;8.30;;
59998;SDS011;45859;51.378;6.736;2023-02-13T01:13:07;11.93;;;8.60;;
59998;SDS011;45859;51.378;6.736;2023-02-13T01:15:33;5.13;;;2.73;;
59998;SDS011;45859;51.378;6.736;2023-02-13T01:17:59;11.17;;;4.27;;
59998;SDS011;45859;51.378;6.736;2023-02-13T01:20:27;5.93;;;3.00;;
59998;SDS011;45859;51.378;6.736;2023-02-13T01:22:53;5.50;;;3.17;;
59998;SDS011;45859;51.378;6.736;2023-02-13T01:25:19;5.83;;;3.27;;
59998;SDS011;45859;51.378;6.736;2023-02-13T01:27:45;11.30;;;8.97;;
59998;SDS011;45859;51.378;6.736;2023-02-13T01:30:13;10.83;;;4.60;;
59998;SDS011;45859;51.378;6.736;2023-02-13T01:32:39;7.77;;;3.53;;
59998;SDS011;45859;51.378;6.736;2023-02-13T01:35:06;12.20;;;4.70;;
59998;SDS011;45859;51.378;6.736;2023-02-13T01:37:32;10.27;;;4.93;;
59998;SDS011;45859;51.378;6.736;2023-02-13T01:39:58;9.90;;;4.87;;
59998;SDS011;45859;51.378;6.736;2023-02-13T01:42:25;5.17;;;2.60;;
59998;SDS011;45859;51.378;6.736;2023-02-13T01:44:59;9.25;;;3.85;;
59998;SDS011;45859;51.378;6.736;2023-02-13T01:47:32;9.07;;;3.70;;
59998;SDS011;45859;51.378;6.736;2023-02-13T01:52:37;15.13;;;10.90;;
59998;SDS011;45859;51.378;6.736;2023-02-13T01:55:07;11.53;;;5.37;;
59998;SDS011;45859;51.378;6.736;2023-02-13T01:57:35;10.63;;;2.97;;
59998;SDS011;45859;51.378;6.736;2023-02-13T02:00:07;10.20;;;4.87;;
59998;SDS011;45859;51.378;6.736;2023-02-13T02:02:36;7.37;;;2.67;;
59998;SDS011;45859;51.378;6.736;2023-02-13T02:05:03;9.40;;;4.57;;
59998;SDS011;45859;51.378;6.736;2023-02-13T02:07:30;11.20;;;4.97;;
59998;SDS011;45859;51.378;6.736;2023-02-13T02:10:02;3.70;;;2.87;;
59998;SDS011;45859;51.378;6.736;2023-02-13T02:15:05;10.60;;;4.63;;
59998;SDS011;45859;51.378;6.736;2023-02-13T02:17:31;11.47;;;4.20;;
59998;SDS011;45859;51.378;6.736;2023-02-13T02:28:17;11.03;;;4.23;;
59998;SDS011;45859;51.378;6.736;2023-02-13T02:34:17;12.37;;;5.53;;
59998;SDS011;45859;51.378;6.736;2023-02-13T02:40:19;7.60;;;3.27;;
59998;SDS011;45859;51.378;6.736;2023-02-13T02:51:20;9.73;;;4.83;;
59998;SDS011;45859;51.378;6.736;2023-02-13T02:56:33;8.37;;;3.37;;
59998;SDS011;45859;51.378;6.736;2023-02-13T02:59:05;12.73;;;4.82;;
59998;SDS011;45859;51.378;6.736;2023-02-13T03:01:54;11.73;;;4.07;;
59998;SDS011;45859;51.378;6.736;2023-02-13T03:04:50;9.23;;;4.73;;
59998;SDS011;45859;51.378;6.736;2023-02-13T03:07:40;11.63;;;4.32;;
59998;SDS011;45859;51.378;6.736;2023-02-13T03:10:10;12.23;;;5.20;;
59998;SDS011;45859;51.378;6.736;2023-02-13T03:13:34;9.30;;;4.50;;
59998;SDS011;45859;51.378;6.736;2023-02-13T03:16:03;6.30;;;3.43;;
59998;SDS011;45859;51.378;6.736;2023-02-13T03:18:52;5.57;;;2.67;;
59998;SDS011;45859;51.378;6.736;2023-02-13T03:30:24;11.27;;;4.17;;
59998;SDS011;45859;51.378;6.736;2023-02-13T03:36:08;4.33;;;2.37;;
59998;SDS011;45859;51.378;6.736;2023-02-13T03:44:27;4.13;;;2.63;;
59998;SDS011;45859;51.378;6.736;2023-02-13T03:46:59;12.87;;;9.90;;
59998;SDS011;45859;51.378;6.736;2023-02-13T03:49:37;11.53;;;4.63;;
59998;SDS011;45859;51.378;6.736;2023-02-13T03:55:13;8.57;;;4.27;;
59998;SDS011;45859;51.378;6.736;2023-02-13T03:58:16;4.90;;;2.53;;
59998;SDS011;45859;51.378;6.736;2023-02-13T04:01:06;12.33;;;8.93;;
59998;SDS011;45859;51.378;6.736;2023-02-13T04:06:09;7.70;;;3.00;;
59998;SDS011;45859;51.378;6.736;2023-02-13T04:08:56;6.10;;;3.10;;
59998;SDS011;45859;51.378;6.736;2023-02-13T04:17:16;8.63;;;3.57;;
59998;SDS011;45859;51.378;6.736;2023-02-13T04:19:54;9.33;;;3.80;;
59998;SDS011;45859;51.378;6.736;2023-02-13T04:22:20;8.10;;;3.67;;
59998;SDS011;45859;51.378;6.736;2023-02-13T04:24:45;6.77;;;3.53;;
59998;SDS011;45859;51.378;6.736;2023-02-13T04:27:15;8.20;;;3.30;;
59998;SDS011;45859;51.378;6.736;2023-02-13T04:29:41;9.40;;;4.05;;
59998;SDS011;45859;51.378;6.736;2023-02-13T04:32:08;9.93;;;4.40;;
59998;SDS011;45859;51.378;6.736;2023-02-13T04:34:35;6.17;;;3.10;;
59998;SDS011;45859;51.378;6.736;2023-02-13T04:37:01;5.63;;;3.03;;
59998;SDS011;45859;51.378;6.736;2023-02-13T04:39:26;12.93;;;9.57;;
59998;SDS011;45859;51.378;6.736;2023-02-13T04:41:52;9.47;;;4.03;;
59998;SDS011;45859;51.378;6.736;2023-02-13T04:44:18;5.20;;;3.03;;
59998;SDS011;45859;51.378;6.736;2023-02-13T04:46:43;6.50;;;2.87;;
59998;SDS011;45859;51.378;6.736;2023-02-13T04:49:09;5.70;;;2.53;;
59998;SDS011;45859;51.378;6.736;2023-02-13T04:51:35;15.17;;;10.07;;
59998;SDS011;45859;51.378;6.736;2023-02-13T04:54:01;8.73;;;4.57;;
59998;SDS011;45859;51.378;6.736;2023-02-13T04:56:26;8.50;;;3.90;;
59998;SDS011;45859;51.378;6.736;2023-02-13T04:58:53;12.97;;;4.20;;
59998;SDS011;45859;51.378;6.736;2023-02-13T05:01:19;14.37;;;10.30;;
59998;SDS011;45859;51.378;6.736;2023-02-13T05:03:45;11.47;;;4.43;;
59998;SDS011;45859;51.378;6.736;2023-02-13T05:06:11;7.23;;;3.30;;
59998;SDS011;45859;51.378;6.736;2023-02-13T05:08:36;13.83;;;10.63;;
59998;SDS011;45859;51.378;6.736;2023-02-13T05:11:02;11.47;;;4.77;;
59998;SDS011;45859;51.378;6.736;2023-02-13T05:13:28;5.43;;;2.87;;
59998;SDS011;45859;51.378;6.736;2023-02-13T05:15:54;7.37;;;3.57;;
59998;SDS011;45859;51.378;6.736;2023-02-13T05:18:19;10.57;;;4.33;;
59998;SDS011;45859;51.378;6.736;2023-02-13T05:20:45;11.80;;;4.70;;
59998;SDS011;45859;51.378;6.736;2023-02-13T05:23:31;9.33;;;3.80;;
59998;SDS011;45859;51.378;6.736;2023-02-13T05:25:57;4.97;;;2.37;;
59998;SDS011;45859;51.378;6.736;2023-02-13T05:28:22;12.10;;;5.00;;
59998;SDS011;45859;51.378;6.736;2023-02-13T05:31:06;8.83;;;4.27;;
59998;SDS011;45859;51.378;6.736;2023-02-13T05:33:32;14.83;;;11.63;;
59998;SDS011;45859;51.378;6.736;2023-02-13T05:35:58;12.33;;;5.57;;
59998;SDS011;45859;51.378;6.736;2023-02-13T05:38:23;12.60;;;5.90;;
59998;SDS011;45859;51.378;6.736;2023-02-13T05:40:49;9.73;;;4.27;;
59998;SDS011;45859;51.378;6.736;2023-02-13T05:43:15;10.37;;;4.93;;
59998;SDS011;45859;51.378;6.736;2023-02-13T05:45:40;12.10;;;4.93;;
59998;SDS011;45859;51.378;6.736;2023-02-13T05:48:06;7.90;;;4.10;;
59998;SDS011;45859;51.378;6.736;2023-02-13T05:50:35;9.97;;;4.73;;
59998;SDS011;45859;51.378;6.736;2023-02-13T05:53:01;8.23;;;3.60;;
59998;SDS011;45859;51.378;6.736;2023-02-13T05:55:26;12.23;;;4.97;;
59998;SDS011;45859;51.378;6.736;2023-02-13T05:57:55;12.03;;;5.27;;
59998;SDS011;45859;51.378;6.736;2023-02-13T06:00:22;6.27;;;3.13;;
59998;SDS011;45859;51.378;6.736;2023-02-13T06:02:48;11.70;;;5.07;;
59998;SDS011;45859;51.378;6.736;2023-02-13T06:05:13;13.43;;;5.13;;
59998;SDS011;45859;51.378;6.736;2023-02-13T06:07:39;15.27;;;6.37;;
59998;SDS011;45859;51.378;6.736;2023-02-13T06:10:05;12.27;;;5.73;;
59998;SDS011;45859;51.378;6.736;2023-02-13T06:12:31;11.93;;;5.43;;
59998;SDS011;45859;51.378;6.736;2023-02-13T06:14:57;9.23;;;4.70;;
59998;SDS011;45859;51.378;6.736;2023-02-13T06:17:23;8.40;;;3.70;;
59998;SDS011;45859;51.378;6.736;2023-02-13T06:19:48;9.93;;;4.93;;
59998;SDS011;45859;51.378;6.736;2023-02-13T06:22:14;12.87;;;5.77;;
59998;SDS011;45859;51.378;6.736;2023-02-13T06:24:40;12.87;;;5.53;;
59998;SDS011;45859;51.378;6.736;2023-02-13T06:27:05;10.53;;;4.67;;
59998;SDS011;45859;51.378;6.736;2023-02-13T06:29:31;14.40;;;6.50;;
59998;SDS011;45859;51.378;6.736;2023-02-13T06:31:57;14.30;;;6.57;;
59998;SDS011;45859;51.378;6.736;2023-02-13T06:34:23;14.83;;;5.80;;
59998;SDS011;45859;51.378;6.736;2023-02-13T06:36:48;15.60;;;6.53;;
59998;SDS011;45859;51.378;6.736;2023-02-13T06:39:14;13.07;;;6.57;;
59998;SDS011;45859;51.378;6.736;2023-02-13T06:41:40;16.33;;;6.17;;
59998;SDS011;45859;51.378;6.736;2023-02-13T06:44:06;12.40;;;5.60;;
59998;SDS011;45859;51.378;6.736;2023-02-13T06:46:32;9.00;;;4.37;;
59998;SDS011;45859;51.378;6.736;2023-02-13T06:48:57;8.53;;;4.47;;
59998;SDS011;45859;51.378;6.736;2023-02-13T06:51:23;17.70;;;7.03;;
59998;SDS011;45859;51.378;6.736;2023-02-13T06:53:49;12.90;;;6.30;;
59998;SDS011;45859;51.378;6.736;2023-02-13T06:56:14;15.77;;;6.00;;
59998;SDS011;45859;51.378;6.736;2023-02-13T06:58:40;12.93;;;6.23;;
59998;SDS011;45859;51.378;6.736;2023-02-13T07:01:06;14.97;;;6.60;;
59998;SDS011;45859;51.378;6.736;2023-02-13T07:03:31;17.70;;;7.07;;
59998;SDS011;45859;51.378;6.736;2023-02-13T07:05:57;16.57;;;6.63;;
59998;SDS011;45859;51.378;6.736;2023-02-13T07:08:23;16.73;;;6.93;;
59998;SDS011;45859;51.378;6.736;2023-02-13T07:10:48;15.47;;;5.83;;
59998;SDS011;45859;51.378;6.736;2023-02-13T07:13:14;23.70;;;7.03;;
59998;SDS011;45859;51.378;6.736;2023-02-13T07:15:40;15.87;;;6.97;;
59998;SDS011;45859;51.378;6.736;2023-02-13T07:18:06;15.60;;;6.90;;
59998;SDS011;45859;51.378;6.736;2023-02-13T07:20:32;15.93;;;6.40;;
59998;SDS011;45859;51.378;6.736;2023-02-13T07:22:58;14.00;;;6.07;;
59998;SDS011;45859;51.378;6.736;2023-02-13T07:25:25;6.90;;;3.63;;
59998;SDS011;45859;51.378;6.736;2023-02-13T07:27:51;13.50;;;6.03;;
59998;SDS011;45859;51.378;6.736;2023-02-13T07:30:17;12.57;;;5.40;;
59998;SDS011;45859;51.378;6.736;2023-02-13T07:32:43;9.73;;;5.10;;
59998;SDS011;45859;51.378;6.736;2023-02-13T07:35:09;11.90;;;5.47;;
59998;SDS011;45859;51.378;6.736;2023-02-13T07:37:34;15.40;;;6.77;;
59998;SDS011;45859;51.378;6.736;2023-02-13T07:40:00;14.03;;;6.27;;
59998;SDS011;45859;51.378;6.736;2023-02-13T07:42:28;8.33;;;4.57;;
59998;SDS011;45859;51.378;6.736;2023-02-13T07:44:56;9.07;;;4.37;;
59998;SDS011;45859;51.378;6.736;2023-02-13T07:47:22;13.90;;;6.07;;
59998;SDS011;45859;51.378;6.736;2023-02-13T07:49:48;17.47;;;7.03;;
59998;SDS011;45859;51.378;6.736;2023-02-13T07:52:14;15.10;;;7.43;;
59998;SDS011;45859;51.378;6.736;2023-02-13T07:54:39;11.93;;;5.93;;
59998;SDS011;45859;51.378;6.736;2023-02-13T07:57:11;13.43;;;6.70;;
59998;SDS011;45859;51.378;6.736;2023-02-13T07:59:38;16.00;;;6.53;;
59998;SDS011;45859;51.378;6.736;2023-02-13T08:02:03;10.80;;;5.10;;
59998;SDS011;45859;51.378;6.736;2023-02-13T08:04:29;15.00;;;11.70;;
59998;SDS011;45859;51.378;6.736;2023-02-13T08:06:55;14.13;;;11.80;;
59998;SDS011;45859;51.378;6.736;2023-02-13T08:09:20;15.03;;;12.40;;
59998;SDS011;45859;51.378;6.736;2023-02-13T08:12:05;14.40;;;11.37;;
59998;SDS011;45859;51.378;6.736;2023-02-13T08:14:32;13.70;;;11.63;;
59998;SDS011;45859;51.378;6.736;2023-02-13T08:16:58;14.10;;;11.57;;
59998;SDS011;45859;51.378;6.736;2023-02-13T08:19:27;14.00;;;11.57;;
59998;SDS011;45859;51.378;6.736;2023-02-13T08:21:53;15.23;;;12.27;;
59998;SDS011;45859;51.378;6.736;2023-02-13T08:24:19;12.57;;;10.67;;
59998;SDS011;45859;51.378;6.736;2023-02-13T08:26:45;13.87;;;11.57;;
59998;SDS011;45859;51.378;6.736;2023-02-13T08:29:10;14.50;;;11.47;;
59998;SDS011;45859;51.378;6.736;2023-02-13T08:31:36;13.73;;;11.03;;
59998;SDS011;45859;51.378;6.736;2023-02-13T08:34:02;13.67;;;11.00;;
59998;SDS011;45859;51.378;6.736;2023-02-13T08:36:28;13.87;;;11.13;;
59998;SDS011;45859;51.378;6.736;2023-02-13T08:38:54;13.87;;;10.80;;
59998;SDS011;45859;51.378;6.736;2023-02-13T08:41:20;11.57;;;9.83;;
59998;SDS011;45859;51.378;6.736;2023-02-13T08:43:47;12.23;;;10.23;;
59998;SDS011;45859;51.378;6.736;2023-02-13T08:46:14;13.00;;;10.93;;
59998;SDS011;45859;51.378;6.736;2023-02-13T08:48:40;12.20;;;10.00;;
59998;SDS011;45859;51.378;6.736;2023-02-13T08:51:06;11.03;;;9.57;;
59998;SDS011;45859;51.378;6.736;2023-02-13T08:53:34;11.53;;;9.67;;
59998;SDS011;45859;51.378;6.736;2023-02-13T08:56:00;10.93;;;9.40;;
59998;SDS011;45859;51.378;6.736;2023-02-13T08:58:26;11.03;;;9.37;;
59998;SDS011;45859;51.378;6.736;2023-02-13T09:00:51;11.40;;;9.10;;
59998;SDS011;45859;51.378;6.736;2023-02-13T09:03:17;11.77;;;9.73;;
59998;SDS011;45859;51.378;6.736;2023-02-13T09:05:43;10.07;;;8.97;;
59998;SDS011;45859;51.378;6.736;2023-02-13T09:08:09;9.80;;;8.43;;
59998;SDS011;45859;51.378;6.736;2023-02-13T09:10:38;12.43;;;9.60;;
59998;SDS011;45859;51.378;6.736;2023-02-13T09:13:04;10.97;;;8.77;;
59998;SDS011;45859;51.378;6.736;2023-02-13T09:15:30;9.73;;;8.43;;
59998;SDS011;45859;51.378;6.736;2023-02-13T09:17:56;9.80;;;8.80;;
59998;SDS011;45859;51.378;6.736;2023-02-13T09:20:22;10.40;;;9.30;;
59998;SDS011;45859;51.378;6.736;2023-02-13T09:22:48;9.73;;;8.70;;
59998;SDS011;45859;51.378;6.736;2023-02-13T09:25:14;10.93;;;9.40;;
59998;SDS011;45859;51.378;6.736;2023-02-13T09:27:39;11.13;;;9.43;;
59998;SDS011;45859;51.378;6.736;2023-02-13T09:30:06;11.07;;;9.23;;
59998;SDS011;45859;51.378;6.736;2023-02-13T09:32:34;11.53;;;9.00;;
59998;SDS011;45859;51.378;6.736;2023-02-13T09:35:01;13.30;;;9.43;;
59998;SDS011;45859;51.378;6.736;2023-02-13T09:37:30;12.47;;;9.43;;
59998;SDS011;45859;51.378;6.736;2023-02-13T09:39:56;13.10;;;9.67;;
59998;SDS011;45859;51.378;6.736;2023-02-13T09:42:23;10.43;;;8.60;;
59998;SDS011;45859;51.378;6.736;2023-02-13T09:44:56;10.97;;;8.70;;
59998;SDS011;45859;51.378;6.736;2023-02-13T09:50:15;13.97;;;9.30;;
59998;SDS011;45859;51.378;6.736;2023-02-13T09:52:44;11.97;;;10.00;;
59998;SDS011;45859;51.378;6.736;2023-02-13T09:55:14;11.63;;;9.10;;
59998;SDS011;45859;51.378;6.736;2023-02-13T10:00:39;10.33;;;9.10;;
59998;SDS011;45859;51.378;6.736;2023-02-13T10:03:44;11.57;;;9.70;;
59998;SDS011;45859;51.378;6.736;2023-02-13T10:14:30;12.60;;;9.27;;
59998;SDS011;45859;51.378;6.736;2023-02-13T10:17:01;10.73;;;4.35;;
59998;SDS011;45859;51.378;6.736;2023-02-13T10:19:34;10.67;;;9.07;;
59998;SDS011;45859;51.378;6.736;2023-02-13T10:22:19;10.73;;;9.20;;
59998;SDS011;45859;51.378;6.736;2023-02-13T10:27:26;12.10;;;10.10;;
59998;SDS011;45859;51.378;6.736;2023-02-13T10:29:58;10.53;;;9.07;;
59998;SDS011;45859;51.378;6.736;2023-02-13T10:32:51;12.90;;;8.83;;
59998;SDS011;45859;51.378;6.736;2023-02-13T10:35:20;11.40;;;9.47;;
59998;SDS011;45859;51.378;6.736;2023-02-13T10:37:55;11.70;;;8.63;;
59998;SDS011;45859;51.378;6.736;2023-02-13T10:40:31;11.80;;;8.90;;
59998;SDS011;45859;51.378;6.736;2023-02-13T10:54:05;10.43;;;8.10;;
59998;SDS011;45859;51.378;6.736;2023-02-13T11:04:51;10.03;;;8.23;;
59998;SDS011;45859;51.378;6.736;2023-02-13T11:07:31;10.90;;;8.40;;
59998;SDS011;45859;51.378;6.736;2023-02-13T11:10:00;11.60;;;8.77;;
59998;SDS011;45859;51.378;6.736;2023-02-13T11:12:33;9.73;;;8.50;;
59998;SDS011;45859;51.378;6.736;2023-02-13T11:15:00;11.17;;;8.40;;
59998;SDS011;45859;51.378;6.736;2023-02-13T11:17:34;11.23;;;8.23;;
59998;SDS011;45859;51.378;6.736;2023-02-13T11:25:54;11.00;;;8.47;;
59998;SDS011;45859;51.378;6.736;2023-02-13T11:28:25;10.13;;;7.90;;
59998;SDS011;45859;51.378;6.736;2023-02-13T11:31:01;11.63;;;8.27;;
59998;SDS011;45859;51.378;6.736;2023-02-13T11:33:38;9.63;;;7.40;;
59998;SDS011;45859;51.378;6.736;2023-02-13T11:36:13;9.60;;;8.00;;
59998;SDS011;45859;51.378;6.736;2023-02-13T11:38:41;9.67;;;7.90;;
59998;SDS011;45859;51.378;6.736;2023-02-13T11:43:43;9.87;;;7.87;;
59998;SDS011;45859;51.378;6.736;2023-02-13T11:46:16;8.80;;;7.80;;
59998;SDS011;45859;51.378;6.736;2023-02-13T11:49:03;9.83;;;7.60;;
59998;SDS011;45859;51.378;6.736;2023-02-13T11:51:37;11.07;;;7.90;;
59998;SDS011;45859;51.378;6.736;2023-02-13T11:57:37;10.40;;;7.73;;
59998;SDS011;45859;51.378;6.736;2023-02-13T11:59:44;9.93;;;7.73;;
59998;SDS011;45859;51.378;6.736;2023-02-13T12:02:16;10.57;;;7.60;;
59998;SDS011;45859;51.378;6.736;2023-02-13T12:04:44;8.93;;;7.57;;
59998;SDS011;45859;51.378;6.736;2023-02-13T12:09:58;9.80;;;7.20;;
59998;SDS011;45859;51.378;6.736;2023-02-13T12:12:52;9.52;;;7.55;;
59998;SDS011;45859;51.378;6.736;2023-02-13T12:17:56;11.10;;;7.00;;
59998;SDS011;45859;51.378;6.736;2023-02-13T12:20:39;11.33;;;7.47;;
59998;SDS011;45859;51.378;6.736;2023-02-13T12:26:13;8.27;;;7.10;;
59998;SDS011;45859;51.378;6.736;2023-02-13T12:37:06;8.33;;;6.47;;
59998;SDS011;45859;51.378;6.736;2023-02-13T12:40:02;9.10;;;6.77;;
59998;SDS011;45859;51.378;6.736;2023-02-13T12:42:40;8.70;;;6.80;;
59998;SDS011;45859;51.378;6.736;2023-02-13T12:50:54;8.77;;;6.73;;
59998;SDS011;45859;51.378;6.736;2023-02-13T13:10:11;7.37;;;6.23;;
59998;SDS011;45859;51.378;6.736;2023-02-13T13:25:12;7.67;;;5.90;;
59998;SDS011;45859;51.378;6.736;2023-02-13T13:27:51;5.67;;;5.10;;
59998;SDS011;45859;51.378;6.736;2023-02-13T13:30:22;6.47;;;5.50;;
59998;SDS011;45859;51.378;6.736;2023-02-13T13:32:59;7.60;;;6.30;;
59998;SDS011;45859;51.378;6.736;2023-02-13T13:41:04;8.53;;;6.27;;
59998;SDS011;45859;51.378;6.736;2023-02-13T13:51:52;7.93;;;5.97;;
59998;SDS011;45859;51.378;6.736;2023-02-13T13:54:19;7.37;;;5.33;;
59998;SDS011;45859;51.378;6.736;2023-02-13T13:57:03;5.50;;;4.60;;
59998;SDS011;45859;51.378;6.736;2023-02-13T14:05:02;9.27;;;5.23;;
59998;SDS011;45859;51.378;6.736;2023-02-13T14:07:40;6.57;;;5.40;;
59998;SDS011;45859;51.378;6.736;2023-02-13T14:12:59;5.60;;;4.67;;
59998;SDS011;45859;51.378;6.736;2023-02-13T14:20:37;6.57;;;4.57;;
59998;SDS011;45859;51.378;6.736;2023-02-13T14:26:19;6.27;;;4.67;;
59998;SDS011;45859;51.378;6.736;2023-02-13T14:29:30;6.43;;;4.37;;
59998;SDS011;45859;51.378;6.736;2023-02-13T14:34:29;7.77;;;4.57;;
59998;SDS011;45859;51.378;6.736;2023-02-13T14:39:35;6.60;;;4.10;;
59998;SDS011;45859;51.378;6.736;2023-02-13T14:42:23;6.43;;;4.40;;
59998;SDS011;45859;51.378;6.736;2023-02-13T14:44:50;4.30;;;3.73;;
59998;SDS011;45859;51.378;6.736;2023-02-13T14:49:52;5.97;;;4.13;;
59998;SDS011;45859;51.378;6.736;2023-02-13T14:52:21;5.07;;;3.83;;
59998;SDS011;45859;51.378;6.736;2023-02-13T14:54:57;4.73;;;4.00;;
59998;SDS011;45859;51.378;6.736;2023-02-13T14:59:57;6.10;;;4.30;;
59998;SDS011;45859;51.378;6.736;2023-02-13T15:02:26;9.63;;;4.80;;
59998;SDS011;45859;51.378;6.736;2023-02-13T15:04:57;5.20;;;3.80;;
59998;SDS011;45859;51.378;6.736;2023-02-13T15:07:34;6.10;;;4.17;;
59998;SDS011;45859;51.378;6.736;2023-02-13T15:10:04;6.33;;;3.83;;
59998;SDS011;45859;51.378;6.736;2023-02-13T15:12:37;8.73;;;5.33;;
59998;SDS011;45859;51.378;6.736;2023-02-13T15:15:23;6.37;;;3.63;;
59998;SDS011;45859;51.378;6.736;2023-02-13T15:17:52;5.23;;;3.97;;
59998;SDS011;45859;51.378;6.736;2023-02-13T15:20:27;5.23;;;4.20;;
59998;SDS011;45859;51.378;6.736;2023-02-13T15:22:57;5.13;;;3.70;;
59998;SDS011;45859;51.378;6.736;2023-02-13T15:27:59;4.37;;;3.60;;
59998;SDS011;45859;51.378;6.736;2023-02-13T15:30:27;4.80;;;3.20;;
59998;SDS011;45859;51.378;6.736;2023-02-13T15:32:58;10.93;;;3.80;;
59998;SDS011;45859;51.378;6.736;2023-02-13T15:35:29;6.17;;;3.80;;
59998;SDS011;45859;51.378;6.736;2023-02-13T15:37:57;4.40;;;3.50;;
59998;SDS011;45859;51.378;6.736;2023-02-13T15:42:51;4.87;;;3.43;;
59998;SDS011;45859;51.378;6.736;2023-02-13T15:45:18;5.53;;;3.37;;
59998;SDS011;45859;51.378;6.736;2023-02-13T15:47:46;4.67;;;2.90;;
59998;SDS011;45859;51.378;6.736;2023-02-13T15:50:28;3.97;;;3.13;;
59998;SDS011;45859;51.378;6.736;2023-02-13T15:52:57;4.87;;;3.17;;
59998;SDS011;45859;51.378;6.736;2023-02-13T15:55:29;6.57;;;3.83;;
59998;SDS011;45859;51.378;6.736;2023-02-13T15:57:58;4.57;;;3.33;;
59998;SDS011;45859;51.378;6.736;2023-02-13T16:02:53;3.93;;;2.93;;
59998;SDS011;45859;51.378;6.736;2023-02-13T16:05:20;4.63;;;3.27;;
59998;SDS011;45859;51.378;6.736;2023-02-13T16:12:53;5.33;;;3.40;;
59998;SDS011;45859;51.378;6.736;2023-02-13T16:15:21;4.73;;;3.20;;
59998;SDS011;45859;51.378;6.736;2023-02-13T16:17:48;7.20;;;3.50;;
59998;SDS011;45859;51.378;6.736;2023-02-13T16:20:20;5.27;;;3.20;;
59998;SDS011;45859;51.378;6.736;2023-02-13T16:22:50;6.97;;;4.00;;
59998;SDS011;45859;51.378;6.736;2023-02-13T16:25:20;5.30;;;3.97;;
59998;SDS011;45859;51.378;6.736;2023-02-13T16:27:56;4.83;;;3.47;;
59998;SDS011;45859;51.378;6.736;2023-02-13T16:35:40;6.60;;;4.10;;
59998;SDS011;45859;51.378;6.736;2023-02-13T16:38:41;5.27;;;3.93;;
59998;SDS011;45859;51.378;6.736;2023-02-13T16:51:36;4.13;;;3.20;;
59998;SDS011;45859;51.378;6.736;2023-02-13T16:56:35;7.43;;;4.23;;
59998;SDS011;45859;51.378;6.736;2023-02-13T16:59:12;7.03;;;4.70;;
59998;SDS011;45859;51.378;6.736;2023-02-13T17:01:42;5.03;;;2.58;;
59998;SDS011;45859;51.378;6.736;2023-02-13T17:04:21;9.17;;;5.80;;
59998;SDS011;45859;51.378;6.736;2023-02-13T17:06:53;5.15;;;3.42;;
59998;SDS011;45859;51.378;6.736;2023-02-13T17:09:19;6.73;;;4.30;;
59998;SDS011;45859;51.378;6.736;2023-02-13T17:11:46;7.57;;;4.97;;
59998;SDS011;45859;51.378;6.736;2023-02-13T17:14:15;5.32;;;3.75;;
59998;SDS011;45859;51.378;6.736;2023-02-13T17:16:41;3.73;;;3.30;;
59998;SDS011;45859;51.378;6.736;2023-02-13T17:19:07;4.97;;;4.23;;
59998;SDS011;45859;51.378;6.736;2023-02-13T17:21:32;8.03;;;5.00;;
59998;SDS011;45859;51.378;6.736;2023-02-13T17:23:59;6.87;;;4.33;;
59998;SDS011;45859;51.378;6.736;2023-02-13T17:26:26;4.67;;;3.60;;
59998;SDS011;45859;51.378;6.736;2023-02-13T17:28:52;11.87;;;6.07;;
59998;SDS011;45859;51.378;6.736;2023-02-13T17:31:17;6.93;;;4.63;;
59998;SDS011;45859;51.378;6.736;2023-02-13T17:33:43;5.10;;;4.57;;
59998;SDS011;45859;51.378;6.736;2023-02-13T17:36:12;6.70;;;4.43;;
59998;SDS011;45859;51.378;6.736;2023-02-13T17:38:38;7.37;;;4.40;;
59998;SDS011;45859;51.378;6.736;2023-02-13T17:41:04;7.20;;;4.60;;
59998;SDS011;45859;51.378;6.736;2023-02-13T17:43:35;6.37;;;2.87;;
59998;SDS011;45859;51.378;6.736;2023-02-13T17:46:01;3.97;;;2.47;;
59998;SDS011;45859;51.378;6.736;2023-02-13T17:48:28;5.43;;;2.53;;
59998;SDS011;45859;51.378;6.736;2023-02-13T17:50:53;8.07;;;2.63;;
59998;SDS011;45859;51.378;6.736;2023-02-13T17:53:23;7.33;;;5.43;;
59998;SDS011;45859;51.378;6.736;2023-02-13T17:55:51;4.90;;;3.03;;
59998;SDS011;45859;51.378;6.736;2023-02-13T17:58:17;8.57;;;6.13;;
59998;SDS011;45859;51.378;6.736;2023-02-13T18:00:43;9.67;;;6.90;;
59998;SDS011;45859;51.378;6.736;2023-02-13T18:03:09;6.10;;;5.10;;
59998;SDS011;45859;51.378;6.736;2023-02-13T18:05:36;7.07;;;4.63;;
59998;SDS011;45859;51.378;6.736;2023-02-13T18:08:02;4.80;;;2.27;;
59998;SDS011;45859;51.378;6.736;2023-02-13T18:10:29;4.73;;;2.60;;
59998;SDS011;45859;51.378;6.736;2023-02-13T18:12:57;5.77;;;3.40;;
59998;SDS011;45859;51.378;6.736;2023-02-13T18:15:28;7.00;;;5.67;;
59998;SDS011;45859;51.378;6.736;2023-02-13T18:17:58;5.53;;;3.40;;
59998;SDS011;45859;51.378;6.736;2023-02-13T18:20:24;7.97;;;5.30;;
59998;SDS011;45859;51.378;6.736;2023-02-13T18:22:50;13.20;;;6.87;;
59998;SDS011;45859;51.378;6.736;2023-02-13T18:25:16;8.40;;;5.23;;
59998;SDS011;45859;51.378;6.736;2023-02-13T18:27:45;9.03;;;4.97;;
59998;SDS011;45859;51.378;6.736;2023-02-13T18:30:12;5.93;;;3.17;;
59998;SDS011;45859;51.378;6.736;2023-02-13T18:32:39;10.07;;;4.47;;
59998;SDS011;45859;51.378;6.736;2023-02-13T18:35:05;7.20;;;3.33;;
59998;SDS011;45859;51.378;6.736;2023-02-13T18:37:32;4.63;;;3.00;;
59998;SDS011;45859;51.378;6.736;2023-02-13T18:39:58;11.00;;;6.27;;
59998;SDS011;45859;51.378;6.736;2023-02-13T18:42:24;11.03;;;7.00;;
59998;SDS011;45859;51.378;6.736;2023-02-13T18:44:50;10.33;;;3.80;;